CheckWX is a tool to help pilots better visualize weather data.  It is not intended as a substitute for an official pre-flight weather briefing.

20:05:54 UTC

KPTD METAR
Potsdam Municipal / Damon Field / Airport
Potsdam, New York, USA
Current

31 mins ago

KPTD 261935Z AUTO 33008G13KT 300V360 10SM SCT047 SCT055 22/13 A2987 RMK AO2
Observed
May-26 @ 19:35 UTC
Wind
  • 330° at 8 KTS
  • Gusting to 13 KTS
Visibility
10 SM
Flight Rules
VFR
Cloud Levels
  • Scattered at 4,700' AGL
  • Scattered at 5,500' AGL
Temperature
22°C / 72°F
Dewpoint
13°C / 55°F
Humidity
57%
Altimeter
29.87" Hg
Pressure
1011.52 hPa
Previous

51 mins ago

KPTD 261915Z AUTO 32008G14KT 10SM BKN047 23/13 A2987 RMK AO2
Observed
May-26 @ 19:15 UTC
Wind
  • 320° at 8 KTS
  • Gusting to 14 KTS
Visibility
10 SM
Flight Rules
VFR
Cloud Levels
  • Broken at 4,700' AGL
Temperature
23°C / 73°F
Dewpoint
13°C / 55°F
Humidity
53%
Altimeter
29.87" Hg
Pressure
1011.52 hPa
Previous

1 hour ago

KPTD 261855Z AUTO 30010KT 10SM SCT048 SCT055 23/12 A2987 RMK AO2
Observed
May-26 @ 18:55 UTC
Wind
  • 300° at 10 KTS
Visibility
10 SM
Flight Rules
VFR
Cloud Levels
  • Scattered at 4,800' AGL
  • Scattered at 5,500' AGL
Temperature
23°C / 73°F
Dewpoint
12°C / 54°F
Humidity
50%
Altimeter
29.87" Hg
Pressure
1011.52 hPa